sensor_id;sensor_type;location;lat;lon;timestamp;P1;P2;P0
72307;PMS5003;60257;42.638;23.376;2023-04-24T00:00:55;21.00;20.00;13.00
72307;PMS5003;60257;42.638;23.376;2023-04-24T00:03:22;23.00;22.00;14.00
72307;PMS5003;60257;42.638;23.376;2023-04-24T00:06:06;19.00;17.00;11.00
72307;PMS5003;60257;42.638;23.376;2023-04-24T00:08:33;24.33;24.00;16.00
72307;PMS5003;60257;42.638;23.376;2023-04-24T00:11:01;22.33;21.00;12.00
72307;PMS5003;60257;42.638;23.376;2023-04-24T00:13:27;19.67;19.67;11.67
72307;PMS5003;60257;42.638;23.376;2023-04-24T00:15:56;18.67;17.00;11.00
72307;PMS5003;60257;42.638;23.376;2023-04-24T00:18:21;24.33;23.00;14.67
72307;PMS5003;60257;42.638;23.376;2023-04-24T00:20:47;22.67;21.67;14.00
72307;PMS5003;60257;42.638;23.376;2023-04-24T00:23:12;25.00;25.00;14.67
72307;PMS5003;60257;42.638;23.376;2023-04-24T00:25:38;27.00;25.00;17.00
72307;PMS5003;60257;42.638;23.376;2023-04-24T00:28:05;29.67;27.67;17.67
72307;PMS5003;60257;42.638;23.376;2023-04-24T00:30:30;19.33;16.33;9.67
72307;PMS5003;60257;42.638;23.376;2023-04-24T00:32:56;27.00;24.00;17.00
72307;PMS5003;60257;42.638;23.376;2023-04-24T00:35:22;13.67;13.00;6.33
72307;PMS5003;60257;42.638;23.376;2023-04-24T00:37:48;25.00;22.33;14.67
72307;PMS5003;60257;42.638;23.376;2023-04-24T00:40:13;21.67;19.67;12.00
72307;PMS5003;60257;42.638;23.376;2023-04-24T00:42:39;22.00;22.00;15.00
72307;PMS5003;60257;42.638;23.376;2023-04-24T00:45:05;26.00;24.67;15.67
72307;PMS5003;60257;42.638;23.376;2023-04-24T00:47:32;23.33;22.33;16.33
72307;PMS5003;60257;42.638;23.376;2023-04-24T00:49:58;19.00;17.00;10.00
72307;PMS5003;60257;42.638;23.376;2023-04-24T00:52:25;24.33;22.33;14.67
72307;PMS5003;60257;42.638;23.376;2023-04-24T00:54:50;25.00;22.67;17.00
72307;PMS5003;60257;42.638;23.376;2023-04-24T00:57:16;24.67;22.67;16.33
72307;PMS5003;60257;42.638;23.376;2023-04-24T00:59:42;27.67;24.67;17.00
72307;PMS5003;60257;42.638;23.376;2023-04-24T01:02:09;27.00;27.00;19.33
72307;PMS5003;60257;42.638;23.376;2023-04-24T01:04:36;30.00;26.33;17.00
72307;PMS5003;60257;42.638;23.376;2023-04-24T01:07:02;30.67;30.67;21.00
72307;PMS5003;60257;42.638;23.376;2023-04-24T01:09:27;30.67;28.67;19.33
72307;PMS5003;60257;42.638;23.376;2023-04-24T01:11:53;28.00;28.00;18.33
72307;PMS5003;60257;42.638;23.376;2023-04-24T01:14:19;23.00;19.33;12.00
72307;PMS5003;60257;42.638;23.376;2023-04-24T01:16:45;26.00;26.00;18.00
72307;PMS5003;60257;42.638;23.376;2023-04-24T01:19:11;28.00;27.33;18.00
72307;PMS5003;60257;42.638;23.376;2023-04-24T01:21:37;19.67;19.67;15.67
72307;PMS5003;60257;42.638;23.376;2023-04-24T01:24:05;33.33;29.67;20.33
72307;PMS5003;60257;42.638;23.376;2023-04-24T01:26:30;29.67;29.00;17.67
72307;PMS5003;60257;42.638;23.376;2023-04-24T01:28:56;28.00;28.00;18.67
72307;PMS5003;60257;42.638;23.376;2023-04-24T01:31:22;30.67;28.33;17.00
72307;PMS5003;60257;42.638;23.376;2023-04-24T01:33:49;24.00;23.67;16.00
72307;PMS5003;60257;42.638;23.376;2023-04-24T01:36:14;28.00;27.00;18.00
72307;PMS5003;60257;42.638;23.376;2023-04-24T01:38:41;32.67;31.67;20.00
72307;PMS5003;60257;42.638;23.376;2023-04-24T01:41:07;28.33;28.33;19.67
72307;PMS5003;60257;42.638;23.376;2023-04-24T01:43:32;29.33;29.33;18.00
72307;PMS5003;60257;42.638;23.376;2023-04-24T01:45:58;23.00;23.00;14.67
72307;PMS5003;60257;42.638;23.376;2023-04-24T01:48:23;28.33;28.33;18.33
72307;PMS5003;60257;42.638;23.376;2023-04-24T01:50:49;31.67;31.67;19.33
72307;PMS5003;60257;42.638;23.376;2023-04-24T01:53:14;28.00;24.67;19.00
72307;PMS5003;60257;42.638;23.376;2023-04-24T01:55:40;31.33;29.67;19.33
72307;PMS5003;60257;42.638;23.376;2023-04-24T01:58:06;28.00;28.00;18.00
72307;PMS5003;60257;42.638;23.376;2023-04-24T02:00:31;31.67;29.00;21.00
72307;PMS5003;60257;42.638;23.376;2023-04-24T02:02:57;35.33;30.33;22.67
72307;PMS5003;60257;42.638;23.376;2023-04-24T02:05:23;32.33;29.00;19.00
72307;PMS5003;60257;42.638;23.376;2023-04-24T02:07:48;25.33;25.33;16.00
72307;PMS5003;60257;42.638;23.376;2023-04-24T02:10:13;29.00;27.67;20.67
72307;PMS5003;60257;42.638;23.376;2023-04-24T02:12:39;25.00;24.67;17.00
72307;PMS5003;60257;42.638;23.376;2023-04-24T02:15:05;28.33;28.33;17.67
72307;PMS5003;60257;42.638;23.376;2023-04-24T02:17:31;37.00;34.67;22.67
72307;PMS5003;60257;42.638;23.376;2023-04-24T02:19:56;36.67;35.00;23.00
72307;PMS5003;60257;42.638;23.376;2023-04-24T02:22:22;39.00;35.00;22.33
72307;PMS5003;60257;42.638;23.376;2023-04-24T02:24:47;33.00;31.33;19.67
72307;PMS5003;60257;42.638;23.376;2023-04-24T02:27:13;30.00;30.00;19.67
72307;PMS5003;60257;42.638;23.376;2023-04-24T02:29:38;34.33;33.00;21.67
72307;PMS5003;60257;42.638;23.376;2023-04-24T02:32:04;34.67;30.33;21.67
72307;PMS5003;60257;42.638;23.376;2023-04-24T02:34:29;34.00;32.67;18.00
72307;PMS5003;60257;42.638;23.376;2023-04-24T02:36:55;33.67;32.33;21.00
72307;PMS5003;60257;42.638;23.376;2023-04-24T02:39:20;32.00;28.33;18.33
72307;PMS5003;60257;42.638;23.376;2023-04-24T02:41:46;39.33;33.67;21.00
72307;PMS5003;60257;42.638;23.376;2023-04-24T02:44:11;37.33;34.00;22.33
72307;PMS5003;60257;42.638;23.376;2023-04-24T02:46:37;28.33;26.33;16.00
72307;PMS5003;60257;42.638;23.376;2023-04-24T02:49:03;28.00;27.00;19.00
72307;PMS5003;60257;42.638;23.376;2023-04-24T02:51:28;32.00;31.00;20.00
72307;PMS5003;60257;42.638;23.376;2023-04-24T02:53:54;29.00;27.67;17.67
72307;PMS5003;60257;42.638;23.376;2023-04-24T02:56:20;34.00;31.00;20.33
72307;PMS5003;60257;42.638;23.376;2023-04-24T02:58:45;29.00;27.67;16.67
72307;PMS5003;60257;42.638;23.376;2023-04-24T03:01:11;33.33;31.00;18.67
72307;PMS5003;60257;42.638;23.376;2023-04-24T03:03:37;32.33;31.67;22.67
72307;PMS5003;60257;42.638;23.376;2023-04-24T03:06:03;34.33;31.33;19.67
72307;PMS5003;60257;42.638;23.376;2023-04-24T03:08:31;34.00;34.00;22.67
72307;PMS5003;60257;42.638;23.376;2023-04-24T03:10:57;33.00;29.33;20.00
72307;PMS5003;60257;42.638;23.376;2023-04-24T03:13:22;38.00;35.67;23.00
72307;PMS5003;60257;42.638;23.376;2023-04-24T03:15:48;38.33;37.00;24.00
72307;PMS5003;60257;42.638;23.376;2023-04-24T03:18:13;28.33;27.00;19.67
72307;PMS5003;60257;42.638;23.376;2023-04-24T03:20:39;31.00;28.00;20.00
72307;PMS5003;60257;42.638;23.376;2023-04-24T03:23:04;37.67;34.67;21.67
72307;PMS5003;60257;42.638;23.376;2023-04-24T03:25:30;32.00;28.00;19.00
72307;PMS5003;60257;42.638;23.376;2023-04-24T03:27:56;32.00;30.00;20.00
72307;PMS5003;60257;42.638;23.376;2023-04-24T03:30:21;26.33;25.33;15.67
72307;PMS5003;60257;42.638;23.376;2023-04-24T03:32:47;33.33;31.67;19.67
72307;PMS5003;60257;42.638;23.376;2023-04-24T03:35:12;41.67;35.33;23.33
72307;PMS5003;60257;42.638;23.376;2023-04-24T03:37:37;36.67;33.00;24.00
72307;PMS5003;60257;42.638;23.376;2023-04-24T03:40:03;38.00;37.00;24.00
72307;PMS5003;60257;42.638;23.376;2023-04-24T03:42:31;35.67;33.33;26.00
72307;PMS5003;60257;42.638;23.376;2023-04-24T03:44:56;37.67;35.00;25.67
72307;PMS5003;60257;42.638;23.376;2023-04-24T03:47:21;39.67;37.00;23.67
72307;PMS5003;60257;42.638;23.376;2023-04-24T03:49:47;49.25;40.75;28.00
72307;PMS5003;60257;42.638;23.376;2023-04-24T03:52:12;34.33;34.33;22.33
72307;PMS5003;60257;42.638;23.376;2023-04-24T03:54:38;45.33;39.00;24.00
72307;PMS5003;60257;42.638;23.376;2023-04-24T03:57:03;42.25;38.25;26.00
72307;PMS5003;60257;42.638;23.376;2023-04-24T03:59:29;53.00;42.25;27.00
72307;PMS5003;60257;42.638;23.376;2023-04-24T04:01:55;43.67;39.33;26.00
72307;PMS5003;60257;42.638;23.376;2023-04-24T04:04:21;42.50;38.75;26.00
72307;PMS5003;60257;42.638;23.376;2023-04-24T04:06:46;46.33;40.00;25.33
72307;PMS5003;60257;42.638;23.376;2023-04-24T04:09:11;43.67;39.00;26.00
72307;PMS5003;60257;42.638;23.376;2023-04-24T04:11:37;43.67;38.67;26.67
72307;PMS5003;60257;42.638;23.376;2023-04-24T04:14:02;44.00;38.50;26.25
72307;PMS5003;60257;42.638;23.376;2023-04-24T04:16:28;39.67;36.00;26.00
72307;PMS5003;60257;42.638;23.376;2023-04-24T04:18:53;46.00;42.00;26.00
72307;PMS5003;60257;42.638;23.376;2023-04-24T04:21:20;41.33;39.00;24.00
72307;PMS5003;60257;42.638;23.376;2023-04-24T04:23:45;42.67;37.33;26.00
72307;PMS5003;60257;42.638;23.376;2023-04-24T04:26:11;42.33;38.67;23.67
72307;PMS5003;60257;42.638;23.376;2023-04-24T04:28:37;43.00;37.67;24.67
72307;PMS5003;60257;42.638;23.376;2023-04-24T04:31:04;43.00;39.00;27.00
72307;PMS5003;60257;42.638;23.376;2023-04-24T04:33:30;41.00;36.33;23.00
72307;PMS5003;60257;42.638;23.376;2023-04-24T04:35:56;45.00;39.33;26.33
72307;PMS5003;60257;42.638;23.376;2023-04-24T04:38:23;61.00;49.00;30.50
72307;PMS5003;60257;42.638;23.376;2023-04-24T04:40:49;49.50;43.00;28.00
72307;PMS5003;60257;42.638;23.376;2023-04-24T04:43:15;41.00;37.33;25.33
72307;PMS5003;60257;42.638;23.376;2023-04-24T04:45:41;36.00;34.00;23.00
72307;PMS5003;60257;42.638;23.376;2023-04-24T04:48:08;36.33;34.67;25.33
72307;PMS5003;60257;42.638;23.376;2023-04-24T04:50:37;38.33;37.00;23.33
72307;PMS5003;60257;42.638;23.376;2023-04-24T04:53:03;44.67;39.00;25.67
72307;PMS5003;60257;42.638;23.376;2023-04-24T04:55:28;46.00;40.33;27.33
72307;PMS5003;60257;42.638;23.376;2023-04-24T04:57:54;45.67;38.00;24.67
72307;PMS5003;60257;42.638;23.376;2023-04-24T05:00:22;50.67;44.00;27.33
72307;PMS5003;60257;42.638;23.376;2023-04-24T05:02:51;41.00;37.33;25.33
72307;PMS5003;60257;42.638;23.376;2023-04-24T05:05:17;44.33;38.00;24.00
72307;PMS5003;60257;42.638;23.376;2023-04-24T05:07:43;47.67;41.67;27.67
72307;PMS5003;60257;42.638;23.376;2023-04-24T05:10:09;31.00;31.00;20.33
72307;PMS5003;60257;42.638;23.376;2023-04-24T05:12:35;42.33;39.00;23.00
72307;PMS5003;60257;42.638;23.376;2023-04-24T05:15:01;40.00;36.67;25.00
72307;PMS5003;60257;42.638;23.376;2023-04-24T05:17:26;40.67;36.67;27.00
72307;PMS5003;60257;42.638;23.376;2023-04-24T05:19:52;43.00;37.67;23.00
72307;PMS5003;60257;42.638;23.376;2023-04-24T05:22:17;37.67;35.00;23.33
72307;PMS5003;60257;42.638;23.376;2023-04-24T05:24:45;49.67;44.00;28.00
72307;PMS5003;60257;42.638;23.376;2023-04-24T05:27:11;36.00;33.67;23.00
72307;PMS5003;60257;42.638;23.376;2023-04-24T05:29:36;41.67;36.33;23.67
72307;PMS5003;60257;42.638;23.376;2023-04-24T05:32:02;36.33;35.00;24.00
72307;PMS5003;60257;42.638;23.376;2023-04-24T05:34:27;31.67;31.67;20.67
72307;PMS5003;60257;42.638;23.376;2023-04-24T05:36:53;39.67;35.33;23.00
72307;PMS5003;60257;42.638;23.376;2023-04-24T05:39:18;41.67;37.33;25.00
72307;PMS5003;60257;42.638;23.376;2023-04-24T05:41:45;40.67;36.33;25.00
72307;PMS5003;60257;42.638;23.376;2023-04-24T05:44:10;35.00;34.00;21.00
72307;PMS5003;60257;42.638;23.376;2023-04-24T05:46:36;40.00;36.00;25.33
72307;PMS5003;60257;42.638;23.376;2023-04-24T05:49:01;37.67;35.67;24.00
72307;PMS5003;60257;42.638;23.376;2023-04-24T05:51:27;37.33;29.00;24.00
72307;PMS5003;60257;42.638;23.376;2023-04-24T05:53:53;29.67;29.67;22.33
72307;PMS5003;60257;42.638;23.376;2023-04-24T05:56:19;38.00;34.00;22.33
72307;PMS5003;60257;42.638;23.376;2023-04-24T05:58:45;56.00;45.67;30.00
72307;PMS5003;60257;42.638;23.376;2023-04-24T06:01:11;39.33;36.67;25.33
72307;PMS5003;60257;42.638;23.376;2023-04-24T06:03:39;40.00;37.00;24.33
72307;PMS5003;60257;42.638;23.376;2023-04-24T06:06:05;36.33;34.33;23.00
72307;PMS5003;60257;42.638;23.376;2023-04-24T06:08:31;27.00;26.00;19.00
72307;PMS5003;60257;42.638;23.376;2023-04-24T06:10:57;39.33;34.67;23.00
72307;PMS5003;60257;42.638;23.376;2023-04-24T06:13:23;32.00;31.00;22.00
72307;PMS5003;60257;42.638;23.376;2023-04-24T06:15:49;36.33;34.00;23.67
72307;PMS5003;60257;42.638;23.376;2023-04-24T06:18:15;42.33;36.67;26.00
72307;PMS5003;60257;42.638;23.376;2023-04-24T06:20:41;41.00;36.00;25.00
72307;PMS5003;60257;42.638;23.376;2023-04-24T06:23:06;34.33;33.00;22.00
72307;PMS5003;60257;42.638;23.376;2023-04-24T06:25:32;31.67;31.33;22.00
72307;PMS5003;60257;42.638;23.376;2023-04-24T06:27:57;33.33;33.00;21.00
72307;PMS5003;60257;42.638;23.376;2023-04-24T06:30:23;43.67;38.67;24.00
72307;PMS5003;60257;42.638;23.376;2023-04-24T06:32:49;31.00;29.33;19.00
72307;PMS5003;60257;42.638;23.376;2023-04-24T06:35:14;41.33;36.67;24.67
72307;PMS5003;60257;42.638;23.376;2023-04-24T06:37:41;39.67;36.33;24.67
72307;PMS5003;60257;42.638;23.376;2023-04-24T06:40:07;36.00;33.00;22.33
72307;PMS5003;60257;42.638;23.376;2023-04-24T06:42:33;39.67;36.33;23.67
72307;PMS5003;60257;42.638;23.376;2023-04-24T06:44:59;25.00;25.00;18.33
72307;PMS5003;60257;42.638;23.376;2023-04-24T06:47:25;29.67;26.33;22.00
72307;PMS5003;60257;42.638;23.376;2023-04-24T06:49:51;38.00;33.33;23.00
72307;PMS5003;60257;42.638;23.376;2023-04-24T06:52:17;33.67;33.00;22.00
72307;PMS5003;60257;42.638;23.376;2023-04-24T06:54:44;27.33;24.00;18.00
72307;PMS5003;60257;42.638;23.376;2023-04-24T06:57:09;35.00;33.00;22.00
72307;PMS5003;60257;42.638;23.376;2023-04-24T06:59:35;48.00;39.33;26.00
72307;PMS5003;60257;42.638;23.376;2023-04-24T07:02:01;36.33;35.00;22.67
72307;PMS5003;60257;42.638;23.376;2023-04-24T07:04:26;37.00;32.33;22.00
72307;PMS5003;60257;42.638;23.376;2023-04-24T07:06:53;34.67;32.33;22.00
72307;PMS5003;60257;42.638;23.376;2023-04-24T07:09:23;42.00;36.33;26.00
72307;PMS5003;60257;42.638;23.376;2023-04-24T07:11:50;38.67;35.00;22.00
72307;PMS5003;60257;42.638;23.376;2023-04-24T07:14:22;55.33;47.00;30.00
72307;PMS5003;60257;42.638;23.376;2023-04-24T07:16:48;54.33;45.00;29.33
72307;PMS5003;60257;42.638;23.376;2023-04-24T07:19:13;33.67;32.33;21.33
72307;PMS5003;60257;42.638;23.376;2023-04-24T07:21:39;35.00;32.00;21.33
72307;PMS5003;60257;42.638;23.376;2023-04-24T07:24:05;33.00;30.33;20.00
72307;PMS5003;60257;42.638;23.376;2023-04-24T07:26:34;33.00;32.33;23.33
72307;PMS5003;60257;42.638;23.376;2023-04-24T07:29:00;37.00;33.33;21.00
72307;PMS5003;60257;42.638;23.376;2023-04-24T07:31:25;33.33;30.00;22.00
72307;PMS5003;60257;42.638;23.376;2023-04-24T07:33:51;33.00;32.00;22.00
72307;PMS5003;60257;42.638;23.376;2023-04-24T07:36:16;35.67;33.33;23.33
72307;PMS5003;60257;42.638;23.376;2023-04-24T07:38:46;32.00;30.67;20.67
72307;PMS5003;60257;42.638;23.376;2023-04-24T07:41:15;29.33;26.33;19.00
72307;PMS5003;60257;42.638;23.376;2023-04-24T07:43:41;38.33;32.67;20.00
72307;PMS5003;60257;42.638;23.376;2023-04-24T07:46:07;36.33;31.67;20.00
72307;PMS5003;60257;42.638;23.376;2023-04-24T07:48:33;33.67;32.67;20.67
72307;PMS5003;60257;42.638;23.376;2023-04-24T07:50:58;35.00;32.33;21.00
72307;PMS5003;60257;42.638;23.376;2023-04-24T07:53:24;37.67;34.00;22.33
72307;PMS5003;60257;42.638;23.376;2023-04-24T07:55:49;29.67;28.67;18.67
72307;PMS5003;60257;42.638;23.376;2023-04-24T07:58:15;29.33;27.33;19.00
72307;PMS5003;60257;42.638;23.376;2023-04-24T08:00:40;32.33;30.00;20.67
72307;PMS5003;60257;42.638;23.376;2023-04-24T08:03:06;29.00;29.00;18.67
72307;PMS5003;60257;42.638;23.376;2023-04-24T08:05:31;33.00;31.67;20.00
72307;PMS5003;60257;42.638;23.376;2023-04-24T08:07:57;32.67;30.33;19.00
72307;PMS5003;60257;42.638;23.376;2023-04-24T08:10:23;29.00;27.00;18.67
72307;PMS5003;60257;42.638;23.376;2023-04-24T08:12:50;28.33;26.33;16.00
72307;PMS5003;60257;42.638;23.376;2023-04-24T08:15:15;28.33;27.33;20.33
72307;PMS5003;60257;42.638;23.376;2023-04-24T08:17:41;31.00;29.33;21.00
72307;PMS5003;60257;42.638;23.376;2023-04-24T08:20:08;36.00;32.67;20.33
72307;PMS5003;60257;42.638;23.376;2023-04-24T08:22:41;28.00;28.00;18.33
72307;PMS5003;60257;42.638;23.376;2023-04-24T08:25:08;28.33;28.33;18.67
72307;PMS5003;60257;42.638;23.376;2023-04-24T08:27:35;26.67;26.67;19.67
72307;PMS5003;60257;42.638;23.376;2023-04-24T08:30:02;27.67;26.67;18.67
72307;PMS5003;60257;42.638;23.376;2023-04-24T08:32:29;21.67;20.67;14.33
72307;PMS5003;60257;42.638;23.376;2023-04-24T08:34:54;26.33;25.00;19.67
72307;PMS5003;60257;42.638;23.376;2023-04-24T08:37:21;30.33;27.67;15.33
72307;PMS5003;60257;42.638;23.376;2023-04-24T08:39:48;33.00;27.67;17.00
72307;PMS5003;60257;42.638;23.376;2023-04-24T08:42:14;25.67;25.00;18.33
72307;PMS5003;60257;42.638;23.376;2023-04-24T08:44:41;29.33;29.00;20.00
72307;PMS5003;60257;42.638;23.376;2023-04-24T08:47:08;28.33;28.33;18.67
72307;PMS5003;60257;42.638;23.376;2023-04-24T08:49:34;29.33;29.33;19.67
72307;PMS5003;60257;42.638;23.376;2023-04-24T08:52:01;28.00;28.00;20.00
72307;PMS5003;60257;42.638;23.376;2023-04-24T08:54:28;30.67;26.00;19.33
72307;PMS5003;60257;42.638;23.376;2023-04-24T08:56:54;26.00;25.00;17.00
72307;PMS5003;60257;42.638;23.376;2023-04-24T08:59:27;29.00;26.00;17.33
72307;PMS5003;60257;42.638;23.376;2023-04-24T09:01:53;28.33;26.00;19.67
72307;PMS5003;60257;42.638;23.376;2023-04-24T09:04:20;32.00;28.00;19.33
72307;PMS5003;60257;42.638;23.376;2023-04-24T09:06:49;23.67;23.00;14.00
72307;PMS5003;60257;42.638;23.376;2023-04-24T09:09:28;28.33;26.00;20.00
72307;PMS5003;60257;42.638;23.376;2023-04-24T09:11:55;26.00;24.00;16.67
72307;PMS5003;60257;42.638;23.376;2023-04-24T09:14:22;29.00;27.00;15.00
72307;PMS5003;60257;42.638;23.376;2023-04-24T09:16:49;26.33;24.33;16.00
72307;PMS5003;60257;42.638;23.376;2023-04-24T09:19:15;27.00;26.33;19.67
72307;PMS5003;60257;42.638;23.376;2023-04-24T09:21:40;28.33;24.33;17.00
72307;PMS5003;60257;42.638;23.376;2023-04-24T09:24:14;28.00;27.00;19.00
72307;PMS5003;60257;42.638;23.376;2023-04-24T09:26:42;22.67;22.67;17.00
72307;PMS5003;60257;42.638;23.376;2023-04-24T09:29:13;18.67;18.33;14.33
72307;PMS5003;60257;42.638;23.376;2023-04-24T09:31:40;22.75;19.25;14.25
72307;PMS5003;60257;42.638;23.376;2023-04-24T09:34:06;24.67;23.33;17.00
72307;PMS5003;60257;42.638;23.376;2023-04-24T09:39:02;30.67;29.67;20.00
72307;PMS5003;60257;42.638;23.376;2023-04-24T09:41:31;37.67;34.67;20.00
72307;PMS5003;60257;42.638;23.376;2023-04-24T09:43:58;23.67;23.00;19.67
72307;PMS5003;60257;42.638;23.376;2023-04-24T09:46:36;26.67;24.00;18.00
72307;PMS5003;60257;42.638;23.376;2023-04-24T09:49:08;18.33;18.33;12.33
72307;PMS5003;60257;42.638;23.376;2023-04-24T09:51:36;18.25;18.25;12.25
72307;PMS5003;60257;42.638;23.376;2023-04-24T09:54:03;20.25;20.25;14.50
72307;PMS5003;60257;42.638;23.376;2023-04-24T09:56:34;16.25;15.25;10.00
72307;PMS5003;60257;42.638;23.376;2023-04-24T09:59:06;20.25;20.25;14.25
72307;PMS5003;60257;42.638;23.376;2023-04-24T10:01:32;22.75;21.50;15.00
72307;PMS5003;60257;42.638;23.376;2023-04-24T10:03:58;22.50;22.50;15.25
72307;PMS5003;60257;42.638;23.376;2023-04-24T10:06:29;19.75;19.75;16.00
72307;PMS5003;60257;42.638;23.376;2023-04-24T10:08:58;24.75;22.00;15.25
72307;PMS5003;60257;42.638;23.376;2023-04-24T10:11:25;17.25;16.25;11.75
72307;PMS5003;60257;42.638;23.376;2023-04-24T10:13:52;22.25;22.25;15.25
72307;PMS5003;60257;42.638;23.376;2023-04-24T10:16:18;21.00;20.50;14.00
72307;PMS5003;60257;42.638;23.376;2023-04-24T10:18:46;22.50;21.50;15.00
72307;PMS5003;60257;42.638;23.376;2023-04-24T10:21:14;22.75;21.25;16.25
72307;PMS5003;60257;42.638;23.376;2023-04-24T10:23:40;23.00;23.00;16.75
72307;PMS5003;60257;42.638;23.376;2023-04-24T10:26:08;22.25;20.75;13.00
72307;PMS5003;60257;42.638;23.376;2023-04-24T10:28:34;24.25;24.25;16.75
72307;PMS5003;60257;42.638;23.376;2023-04-24T10:31:01;21.00;20.00;14.50
72307;PMS5003;60257;42.638;23.376;2023-04-24T10:33:27;22.50;21.25;14.75
72307;PMS5003;60257;42.638;23.376;2023-04-24T10:35:55;16.00;16.00;13.25
72307;PMS5003;60257;42.638;23.376;2023-04-24T10:38:24;20.00;19.50;14.00
72307;PMS5003;60257;42.638;23.376;2023-04-24T10:40:51;21.50;19.75;14.75
72307;PMS5003;60257;42.638;23.376;2023-04-24T10:43:22;18.50;18.00;13.00
72307;PMS5003;60257;42.638;23.376;2023-04-24T10:46:01;21.00;21.00;17.25
72307;PMS5003;60257;42.638;23.376;2023-04-24T10:48:28;20.00;20.00;14.75
72307;PMS5003;60257;42.638;23.376;2023-04-24T10:50:55;22.50;21.25;14.25
72307;PMS5003;60257;42.638;23.376;2023-04-24T10:53:21;24.00;24.00;15.25
72307;PMS5003;60257;42.638;23.376;2023-04-24T10:55:59;18.00;18.00;11.00
72307;PMS5003;60257;42.638;23.376;2023-04-24T11:01:05;20.00;18.75;13.75
72307;PMS5003;60257;42.638;23.376;2023-04-24T11:03:32;19.25;19.25;13.75
72307;PMS5003;60257;42.638;23.376;2023-04-24T11:08:28;21.25;20.25;14.00
72307;PMS5003;60257;42.638;23.376;2023-04-24T11:10:56;22.00;21.00;14.25
72307;PMS5003;60257;42.638;23.376;2023-04-24T11:16:28;21.25;20.75;14.75
72307;PMS5003;60257;42.638;23.376;2023-04-24T11:19:10;21.25;20.00;14.50
72307;PMS5003;60257;42.638;23.376;2023-04-24T11:22:00;21.25;20.25;13.50
72307;PMS5003;60257;42.638;23.376;2023-04-24T11:24:38;26.00;24.00;18.25
72307;PMS5003;60257;42.638;23.376;2023-04-24T11:27:06;22.25;21.50;13.25
72307;PMS5003;60257;42.638;23.376;2023-04-24T11:32:22;23.25;21.75;15.00
72307;PMS5003;60257;42.638;23.376;2023-04-24T11:37:19;23.75;23.75;16.25
72307;PMS5003;60257;42.638;23.376;2023-04-24T11:39:45;14.75;14.25;10.50
72307;PMS5003;60257;42.638;23.376;2023-04-24T11:42:13;11.50;11.50;8.75
72307;PMS5003;60257;42.638;23.376;2023-04-24T11:44:42;9.00;9.00;5.50
72307;PMS5003;60257;42.638;23.376;2023-04-24T11:47:08;18.50;14.25;10.00
72307;PMS5003;60257;42.638;23.376;2023-04-24T11:49:33;18.75;17.25;11.00
72307;PMS5003;60257;42.638;23.376;2023-04-24T11:52:01;11.50;11.50;7.00
72307;PMS5003;60257;42.638;23.376;2023-04-24T11:54:27;17.50;17.50;11.25
72307;PMS5003;60257;42.638;23.376;2023-04-24T11:56:53;17.75;17.25;14.00
72307;PMS5003;60257;42.638;23.376;2023-04-24T11:59:18;16.00;16.00;10.25
72307;PMS5003;60257;42.638;23.376;2023-04-24T12:01:44;16.75;16.75;11.00
72307;PMS5003;60257;42.638;23.376;2023-04-24T12:04:11;16.50;16.25;10.75
72307;PMS5003;60257;42.638;23.376;2023-04-24T12:06:36;18.50;18.50;12.00
72307;PMS5003;60257;42.638;23.376;2023-04-24T12:09:02;19.25;18.25;11.50
72307;PMS5003;60257;42.638;23.376;2023-04-24T12:11:28;16.75;16.75;10.00
72307;PMS5003;60257;42.638;23.376;2023-04-24T12:13:53;19.00;18.25;11.75
72307;PMS5003;60257;42.638;23.376;2023-04-24T12:16:19;19.00;17.75;13.00
72307;PMS5003;60257;42.638;23.376;2023-04-24T12:18:44;17.00;17.00;11.25
72307;PMS5003;60257;42.638;23.376;2023-04-24T12:23:46;16.00;16.00;11.50
72307;PMS5003;60257;42.638;23.376;2023-04-24T12:26:18;18.75;17.25;13.25
72307;PMS5003;60257;42.638;23.376;2023-04-24T12:28:48;18.25;18.25;12.75
72307;PMS5003;60257;42.638;23.376;2023-04-24T12:31:17;19.75;19.00;11.25
72307;PMS5003;60257;42.638;23.376;2023-04-24T12:33:42;18.25;18.25;10.75
72307;PMS5003;60257;42.638;23.376;2023-04-24T12:36:11;16.75;15.50;11.25
72307;PMS5003;60257;42.638;23.376;2023-04-24T12:38:37;12.75;12.75;11.00
72307;PMS5003;60257;42.638;23.376;2023-04-24T12:41:09;14.75;14.75;10.25
72307;PMS5003;60257;42.638;23.376;2023-04-24T12:43:37;17.50;16.00;12.25
72307;PMS5003;60257;42.638;23.376;2023-04-24T12:46:03;15.50;15.50;11.50
72307;PMS5003;60257;42.638;23.376;2023-04-24T12:48:29;9.25;8.75;4.50
72307;PMS5003;60257;42.638;23.376;2023-04-24T12:50:58;16.50;16.50;14.25
72307;PMS5003;60257;42.638;23.376;2023-04-24T12:53:26;14.00;14.00;10.25
72307;PMS5003;60257;42.638;23.376;2023-04-24T12:55:53;16.50;16.50;10.50
72307;PMS5003;60257;42.638;23.376;2023-04-24T12:58:19;19.00;17.50;10.00
72307;PMS5003;60257;42.638;23.376;2023-04-24T13:00:45;17.50;17.50;11.50
72307;PMS5003;60257;42.638;23.376;2023-04-24T13:03:11;22.00;20.25;13.75
72307;PMS5003;60257;42.638;23.376;2023-04-24T13:05:37;15.75;15.25;10.25
72307;PMS5003;60257;42.638;23.376;2023-04-24T13:08:03;18.25;17.00;11.75
72307;PMS5003;60257;42.638;23.376;2023-04-24T13:10:29;19.25;18.50;12.00
72307;PMS5003;60257;42.638;23.376;2023-04-24T13:12:55;14.00;13.00;11.25
72307;PMS5003;60257;42.638;23.376;2023-04-24T13:15:21;24.00;22.50;15.50
72307;PMS5003;60257;42.638;23.376;2023-04-24T13:17:47;18.75;18.75;12.25
72307;PMS5003;60257;42.638;23.376;2023-04-24T13:20:12;12.25;11.75;9.75
72307;PMS5003;60257;42.638;23.376;2023-04-24T13:22:38;21.25;21.25;14.25
72307;PMS5003;60257;42.638;23.376;2023-04-24T13:25:04;18.50;14.50;10.25
72307;PMS5003;60257;42.638;23.376;2023-04-24T13:27:31;23.50;21.50;15.00
72307;PMS5003;60257;42.638;23.376;2023-04-24T13:29:56;18.25;17.00;10.50
72307;PMS5003;60257;42.638;23.376;2023-04-24T13:32:22;17.50;17.50;11.50
72307;PMS5003;60257;42.638;23.376;2023-04-24T13:34:47;19.50;17.75;12.75
72307;PMS5003;60257;42.638;23.376;2023-04-24T13:37:13;18.50;18.00;12.25
72307;PMS5003;60257;42.638;23.376;2023-04-24T13:39:38;17.75;15.00;11.00
72307;PMS5003;60257;42.638;23.376;2023-04-24T13:42:04;18.00;17.50;13.00
72307;PMS5003;60257;42.638;23.376;2023-04-24T13:44:29;22.75;21.00;15.00
72307;PMS5003;60257;42.638;23.376;2023-04-24T13:46:55;16.50;16.50;11.00
72307;PMS5003;60257;42.638;23.376;2023-04-24T13:49:22;20.00;20.00;13.50